createdAt,value
2023-02-08T00:01:22.230Z,39.07
2023-02-08T00:03:50.603Z,39.22
2023-02-08T00:06:19.524Z,39.35
2023-02-08T00:08:47.871Z,39.27
2023-02-08T00:11:17.105Z,39.25
2023-02-08T00:13:44.965Z,39.13
2023-02-08T00:16:14.487Z,39.37
2023-02-08T00:18:42.876Z,39.24
2023-02-08T00:21:11.963Z,39.44
2023-02-08T00:23:40.236Z,39.16
2023-02-08T00:26:09.023Z,39.03
2023-02-08T00:28:38.422Z,39.30
2023-02-08T00:31:06.614Z,39.36
2023-02-08T00:33:35.905Z,39.31
2023-02-08T00:36:06.017Z,39.19
2023-02-08T00:38:33.936Z,39.17
2023-02-08T00:41:01.868Z,39.10
2023-02-08T00:43:29.847Z,39.33
2023-02-08T00:46:02.114Z,39.21
2023-02-08T00:48:30.189Z,39.12
2023-02-08T00:50:59.633Z,39.39
2023-02-08T00:53:30.096Z,39.08
2023-02-08T00:55:57.972Z,39.18
2023-02-08T00:58:29.347Z,39.24
2023-02-08T01:00:57.149Z,39.55
2023-02-08T01:03:26.312Z,39.24
2023-02-08T01:05:54.650Z,39.43
2023-02-08T01:08:22.492Z,39.38
2023-02-08T01:10:50.616Z,39.46
2023-02-08T01:13:18.400Z,39.46
2023-02-08T01:15:46.369Z,39.82
2023-02-08T01:18:14.269Z,39.47
2023-02-08T01:20:44.328Z,39.38
2023-02-08T01:23:12.226Z,39.43
2023-02-08T01:25:40.522Z,39.46
2023-02-08T01:28:08.442Z,39.41
2023-02-08T01:30:36.817Z,39.38
2023-02-08T01:33:04.736Z,39.43
2023-02-08T01:35:32.711Z,39.44
2023-02-08T01:38:02.015Z,39.42
2023-02-08T01:40:29.855Z,39.42
2023-02-08T01:42:57.867Z,39.59
2023-02-08T01:45:29.888Z,39.43
2023-02-08T01:48:19.042Z,39.14
2023-02-08T01:50:53.384Z,39.38
2023-02-08T01:53:24.063Z,39.46
2023-02-08T01:55:55.849Z,39.47
2023-02-08T01:58:28.242Z,39.53
2023-02-08T02:00:56.223Z,39.21
2023-02-08T02:03:25.622Z,39.36
2023-02-08T02:05:58.558Z,39.33
2023-02-08T02:08:29.881Z,39.39
2023-02-08T02:10:57.714Z,39.44
2023-02-08T02:13:28.699Z,39.35
2023-02-08T02:15:57.944Z,39.62
2023-02-08T02:18:28.358Z,39.50
2023-02-08T02:21:10.747Z,39.52
2023-02-08T02:24:28.393Z,39.83
2023-02-08T02:27:23.362Z,39.88
2023-02-08T02:30:30.933Z,39.84
2023-02-08T02:33:20.125Z,39.82
2023-02-08T02:35:57.856Z,39.80
2023-02-08T02:38:41.937Z,39.71
2023-02-08T02:41:39.840Z,39.70
2023-02-08T02:44:13.349Z,40.12
2023-02-08T02:46:47.752Z,40.12
2023-02-08T02:49:19.252Z,40.15
2023-02-08T02:51:52.126Z,40.01
2023-02-08T02:54:23.838Z,40.25
2023-02-08T02:56:55.935Z,39.88
2023-02-08T02:59:24.218Z,39.93
2023-02-08T03:01:55.753Z,39.97
2023-02-08T03:04:54.216Z,39.85
2023-02-08T03:07:43.786Z,39.94
2023-02-08T03:10:27.959Z,39.99
2023-02-08T03:13:02.298Z,39.99
2023-02-08T03:15:39.171Z,39.94
2023-02-08T03:18:21.273Z,39.73
2023-02-08T03:20:55.529Z,39.84
2023-02-08T03:23:29.086Z,39.87
2023-02-08T03:26:05.899Z,39.55
2023-02-08T03:28:41.595Z,39.70
2023-02-08T03:31:16.173Z,39.97
2023-02-08T03:33:50.593Z,39.81
2023-02-08T03:36:25.671Z,39.62
2023-02-08T03:38:55.861Z,39.76
2023-02-08T03:41:36.062Z,39.62
2023-02-08T03:44:10.611Z,39.65
2023-02-08T03:46:42.548Z,39.98
2023-02-08T03:49:16.207Z,39.80
2023-02-08T03:51:47.124Z,40.01
2023-02-08T03:54:20.278Z,40.03
2023-02-08T03:56:53.496Z,40.03
2023-02-08T03:59:25.996Z,40.13
2023-02-08T04:01:58.845Z,40.36
2023-02-08T04:04:30.330Z,40.17
2023-02-08T04:06:59.598Z,40.23
2023-02-08T04:09:27.426Z,40.02
2023-02-08T04:11:55.271Z,39.98
2023-02-08T04:14:23.176Z,39.98
2023-02-08T04:16:51.001Z,39.76
2023-02-08T04:19:18.759Z,39.76
2023-02-08T04:21:46.503Z,39.77
2023-02-08T04:24:15.615Z,40.03
2023-02-08T04:26:43.443Z,40.03
2023-02-08T04:29:11.213Z,40.04
2023-02-08T04:31:39.025Z,39.75
2023-02-08T04:34:06.836Z,39.91
2023-02-08T04:36:34.719Z,40.09
2023-02-08T04:39:02.451Z,39.98
2023-02-08T04:41:31.877Z,39.88
2023-02-08T04:43:59.658Z,40.08
2023-02-08T04:46:27.485Z,39.71
2023-02-08T04:48:56.202Z,40.12
2023-02-08T04:51:24.609Z,40.03
2023-02-08T04:53:52.408Z,40.12
2023-02-08T04:56:20.173Z,39.82
2023-02-08T04:58:49.438Z,39.90
2023-02-08T05:01:17.428Z,39.92
2023-02-08T05:03:45.475Z,39.96
2023-02-08T05:06:13.386Z,39.98
2023-02-08T05:08:41.167Z,39.84
2023-02-08T05:11:08.968Z,39.84
2023-02-08T05:13:36.709Z,40.07
2023-02-08T05:16:06.338Z,39.89
2023-02-08T05:18:34.070Z,39.84
2023-02-08T05:21:03.913Z,39.93
2023-02-08T05:23:32.123Z,40.09
2023-02-08T05:26:00.420Z,39.92
2023-02-08T05:28:28.474Z,39.93
2023-02-08T05:30:56.418Z,39.83
2023-02-08T05:33:25.628Z,39.88
2023-02-08T05:35:53.364Z,39.86
2023-02-08T05:38:21.200Z,39.85
2023-02-08T05:40:48.968Z,39.64
2023-02-08T05:43:16.757Z,39.80
2023-02-08T05:45:44.555Z,39.69
2023-02-08T05:48:12.540Z,40.05
2023-02-08T05:50:41.848Z,39.75
2023-02-08T05:53:11.097Z,39.97
2023-02-08T05:55:38.894Z,39.57
2023-02-08T05:58:06.604Z,39.72
2023-02-08T06:00:34.340Z,39.73
2023-02-08T06:03:02.074Z,40.04
2023-02-08T06:05:29.839Z,39.78
2023-02-08T06:07:58.970Z,39.84
2023-02-08T06:10:26.984Z,40.00
2023-02-08T06:12:54.718Z,40.00
2023-02-08T06:15:22.461Z,39.86
2023-02-08T06:17:50.188Z,39.93
2023-02-08T06:20:18.558Z,40.04
2023-02-08T06:22:46.345Z,40.15
2023-02-08T06:25:15.506Z,40.03
2023-02-08T06:27:43.232Z,39.81
2023-02-08T06:30:12.333Z,40.16
2023-02-08T06:32:40.363Z,39.92
2023-02-08T06:35:09.242Z,39.94
2023-02-08T06:37:37.244Z,39.94
2023-02-08T06:40:05.827Z,40.21
2023-02-08T06:42:34.895Z,40.18
2023-02-08T06:45:02.693Z,40.37
2023-02-08T06:47:30.540Z,40.28
2023-02-08T06:49:58.310Z,40.12
2023-02-08T06:52:26.065Z,40.16
2023-02-08T06:54:54.005Z,39.98
2023-02-08T06:57:21.697Z,40.28
2023-02-08T06:59:50.875Z,40.16
2023-02-08T07:02:20.690Z,40.14
2023-02-08T07:04:48.770Z,40.18
2023-02-08T07:07:18.086Z,40.29
2023-02-08T07:09:46.204Z,40.30
2023-02-08T07:12:14.224Z,40.54
2023-02-08T07:14:43.730Z,40.37
2023-02-08T07:17:13.829Z,39.99
2023-02-08T07:19:41.880Z,40.42
2023-02-08T07:22:09.805Z,40.38
2023-02-08T07:24:38.232Z,40.30
2023-02-08T07:27:07.676Z,40.52
2023-02-08T07:29:35.824Z,40.44
2023-02-08T07:32:05.387Z,40.36
2023-02-08T07:34:37.266Z,40.58
2023-02-08T07:37:05.507Z,40.53
2023-02-08T07:39:33.453Z,40.36
2023-02-08T07:42:01.563Z,40.19
2023-02-08T07:44:35.005Z,40.38
2023-02-08T07:47:02.989Z,40.19
2023-02-08T07:49:30.916Z,40.05
2023-02-08T07:52:00.371Z,39.88
2023-02-08T07:54:28.412Z,39.98
2023-02-08T07:56:56.124Z,40.05
2023-02-08T07:59:24.238Z,39.80
2023-02-08T08:01:52.011Z,39.92
2023-02-08T08:04:22.046Z,39.82
2023-02-08T08:06:51.447Z,40.09
2023-02-08T08:09:20.796Z,39.72
2023-02-08T08:11:48.536Z,39.81
2023-02-08T08:14:16.288Z,40.01
2023-02-08T08:16:44.108Z,39.98
2023-02-08T08:19:11.861Z,39.90
2023-02-08T08:21:39.697Z,39.98
2023-02-08T08:24:07.921Z,39.81
2023-02-08T08:26:37.041Z,40.04
2023-02-08T08:29:04.933Z,39.93
2023-02-08T08:31:32.753Z,39.76
2023-02-08T08:34:00.570Z,39.81
2023-02-08T08:36:28.545Z,39.79
2023-02-08T08:38:56.260Z,39.67
2023-02-08T08:41:27.096Z,39.96
2023-02-08T08:43:56.504Z,39.83
2023-02-08T08:46:24.299Z,39.87
2023-02-08T08:48:52.702Z,39.96
2023-02-08T08:51:20.562Z,39.96
2023-02-08T08:53:48.463Z,39.93
2023-02-08T08:56:16.306Z,39.60
2023-02-08T08:58:44.503Z,39.87
2023-02-08T09:01:14.368Z,39.47
2023-02-08T09:03:42.215Z,39.85
2023-02-08T09:06:10.197Z,39.76
2023-02-08T09:08:38.092Z,39.63
2023-02-08T09:11:07.637Z,39.84
2023-02-08T09:13:36.202Z,39.52
2023-02-08T09:16:08.153Z,39.48
2023-02-08T09:18:37.643Z,39.39
2023-02-08T09:21:07.303Z,39.43
2023-02-08T09:23:35.128Z,39.54
2023-02-08T09:26:03.684Z,39.26
2023-02-08T09:28:31.688Z,39.07
2023-02-08T09:31:01.732Z,38.82
2023-02-08T09:33:29.696Z,38.88
2023-02-08T09:35:58.911Z,38.22
2023-02-08T09:38:26.948Z,38.43
2023-02-08T09:41:03.445Z,37.02
2023-02-08T09:43:44.501Z,37.02
2023-02-08T09:46:17.742Z,37.79
2023-02-08T09:48:46.738Z,38.27
2023-02-08T09:51:26.644Z,36.91
2023-02-08T09:54:00.100Z,37.77
2023-02-08T09:56:31.286Z,37.78
2023-02-08T09:59:01.667Z,37.93
2023-02-08T10:01:32.324Z,37.35
2023-02-08T10:04:07.104Z,37.01
2023-02-08T10:06:36.751Z,37.54
2023-02-08T10:09:09.262Z,36.89
2023-02-08T10:11:48.480Z,35.88
2023-02-08T10:14:31.323Z,35.35
2023-02-08T10:17:11.090Z,36.13
2023-02-08T10:19:54.999Z,35.01
2023-02-08T10:22:34.650Z,34.91
2023-02-08T10:25:17.638Z,34.55
2023-02-08T10:28:01.685Z,34.35
2023-02-08T10:30:38.307Z,35.12
2023-02-08T10:33:14.011Z,35.68
2023-02-08T10:35:46.262Z,34.81
2023-02-08T10:38:37.162Z,33.83
2023-02-08T10:41:19.603Z,34.43
2023-02-08T10:43:52.843Z,34.70
2023-02-08T10:46:23.844Z,34.52
2023-02-08T10:49:05.228Z,33.98
2023-02-08T10:51:33.120Z,35.11
2023-02-08T10:54:02.526Z,34.51
2023-02-08T10:56:41.999Z,32.36
2023-02-08T10:59:17.290Z,31.94
2023-02-08T11:01:47.251Z,33.24
2023-02-08T11:04:16.212Z,33.61
2023-02-08T11:06:45.505Z,33.62
2023-02-08T11:09:26.991Z,29.39
2023-02-08T11:11:55.861Z,32.70
2023-02-08T11:14:40.945Z,31.91
2023-02-08T11:17:26.996Z,30.32
2023-02-08T11:19:55.182Z,32.76
2023-02-08T11:22:25.810Z,32.35
2023-02-08T11:25:00.395Z,31.31
2023-02-08T11:27:33.937Z,31.60
2023-02-08T11:30:21.322Z,30.48
2023-02-08T11:32:52.883Z,32.76
2023-02-08T11:35:23.636Z,32.39
2023-02-08T11:37:53.608Z,32.43
2023-02-08T11:40:25.644Z,31.25
2023-02-08T11:42:53.946Z,32.46
2023-02-08T11:45:24.175Z,31.92
2023-02-08T11:47:53.012Z,32.45
2023-02-08T11:50:27.281Z,30.91
2023-02-08T11:52:59.700Z,30.96
2023-02-08T11:55:31.265Z,31.19
2023-02-08T11:58:02.378Z,31.59
2023-02-08T12:00:34.049Z,31.58
2023-02-08T12:03:05.741Z,31.91
2023-02-08T12:05:41.574Z,30.75
2023-02-08T12:08:20.032Z,30.30
2023-02-08T12:11:12.297Z,29.84
2023-02-08T12:14:17.519Z,29.64
2023-02-08T12:17:02.825Z,29.71
2023-02-08T12:19:47.138Z,29.62
2023-02-08T12:22:21.861Z,30.54
2023-02-08T12:24:54.550Z,30.75
2023-02-08T12:27:37.598Z,29.09
2023-02-08T12:30:14.407Z,30.22
2023-02-08T12:33:29.220Z,28.05
2023-02-08T12:36:27.687Z,28.32
2023-02-08T12:39:26.474Z,28.07
2023-02-08T12:42:17.399Z,28.18
2023-02-08T12:45:03.783Z,28.31
2023-02-08T12:47:58.238Z,28.24
2023-02-08T12:50:36.317Z,29.26
2023-02-08T12:53:09.458Z,29.91
2023-02-08T12:55:40.096Z,29.45
2023-02-08T12:58:23.486Z,27.39
2023-02-08T13:00:54.682Z,29.11
2023-02-08T13:03:33.417Z,27.97
2023-02-08T13:06:05.243Z,29.51
2023-02-08T13:08:40.686Z,29.20
2023-02-08T13:11:20.106Z,28.22
2023-02-08T13:13:56.763Z,27.73
2023-02-08T13:16:30.084Z,27.91
2023-02-08T13:19:12.030Z,26.71
2023-02-08T13:21:43.702Z,28.59
2023-02-08T13:24:28.202Z,26.96
2023-02-08T13:26:56.035Z,28.34
2023-02-08T13:29:26.578Z,28.32
2023-02-08T13:32:01.328Z,26.61
2023-02-08T13:34:34.854Z,27.18
2023-02-08T13:37:13.541Z,27.72
2023-02-08T13:39:49.259Z,27.54
2023-02-08T13:42:23.662Z,26.52
2023-02-08T13:44:55.077Z,27.47
2023-02-08T13:47:27.653Z,26.52
2023-02-08T13:50:00.003Z,27.12
2023-02-08T13:52:52.965Z,25.63
2023-02-08T13:55:46.012Z,25.50
2023-02-08T13:59:05.016Z,25.69
2023-02-08T14:01:35.460Z,27.33
2023-02-08T14:04:32.831Z,25.67
2023-02-08T14:07:06.294Z,26.55
2023-02-08T14:09:47.153Z,25.12
2023-02-08T14:12:23.509Z,26.27
2023-02-08T14:15:09.273Z,24.70
2023-02-08T14:17:37.473Z,26.86
2023-02-08T14:20:08.690Z,25.87
2023-02-08T14:22:40.105Z,26.37
2023-02-08T14:25:18.110Z,26.56
2023-02-08T14:27:53.164Z,25.59
2023-02-08T14:30:28.512Z,25.23
2023-02-08T14:33:17.293Z,24.98
2023-02-08T14:35:56.310Z,25.29
2023-02-08T14:38:52.059Z,25.07
2023-02-08T14:41:46.157Z,23.28
2023-02-08T14:44:53.760Z,25.05
2023-02-08T14:48:07.882Z,25.57
2023-02-08T14:50:42.541Z,25.82
2023-02-08T14:53:41.423Z,25.13
2023-02-08T14:56:19.886Z,25.25
2023-02-08T14:58:51.792Z,26.47
2023-02-08T15:01:21.676Z,26.78
2023-02-08T15:03:52.046Z,26.41
2023-02-08T15:07:01.642Z,25.01
2023-02-08T15:09:33.408Z,26.16
2023-02-08T15:12:03.815Z,26.33
2023-02-08T15:14:35.027Z,26.59
2023-02-08T15:17:03.429Z,26.60
2023-02-08T15:19:35.096Z,26.32
2023-02-08T15:22:20.408Z,25.29
2023-02-08T15:24:53.747Z,25.51
2023-02-08T15:27:23.554Z,26.51
2023-02-08T15:29:51.751Z,26.91
2023-02-08T15:32:23.436Z,25.75
2023-02-08T15:34:55.315Z,26.25
2023-02-08T15:37:24.111Z,26.68
2023-02-08T15:39:55.828Z,25.09
2023-02-08T15:42:26.226Z,26.13
2023-02-08T15:44:54.085Z,26.43
2023-02-08T15:47:27.766Z,26.12
2023-02-08T15:49:56.577Z,26.34
2023-02-08T15:52:26.764Z,26.41
2023-02-08T15:54:55.935Z,26.12
2023-02-08T15:57:33.836Z,25.33
2023-02-08T16:00:03.800Z,26.43
2023-02-08T16:02:35.787Z,26.44
2023-02-08T16:05:12.466Z,26.20
2023-02-08T16:07:45.774Z,26.19
2023-02-08T16:10:26.691Z,25.44
2023-02-08T16:12:57.323Z,26.42
2023-02-08T16:15:41.101Z,25.07
2023-02-08T16:18:33.920Z,25.13
2023-02-08T16:21:04.108Z,26.56
2023-02-08T16:23:33.993Z,26.63
2023-02-08T16:26:19.113Z,25.43
2023-02-08T16:28:53.890Z,25.64
2023-02-08T16:31:24.952Z,26.58
2023-02-08T16:34:00.571Z,25.91
2023-02-08T16:36:34.200Z,26.23
2023-02-08T16:39:46.921Z,25.74
2023-02-08T16:42:30.524Z,25.72
2023-02-08T16:45:14.539Z,25.55
2023-02-08T16:47:44.858Z,26.92
2023-02-08T16:50:14.963Z,26.94
2023-02-08T16:52:43.172Z,26.86
2023-02-08T16:55:18.999Z,26.06
2023-02-08T16:57:50.176Z,26.75
2023-02-08T17:00:21.763Z,26.83
2023-02-08T17:02:50.198Z,27.20
2023-02-08T17:05:19.890Z,27.01
2023-02-08T17:07:47.787Z,26.99
2023-02-08T17:10:22.080Z,26.36
2023-02-08T17:12:51.530Z,26.89
2023-02-08T17:15:20.922Z,27.02
2023-02-08T17:17:49.162Z,27.13
2023-02-08T17:20:23.833Z,26.32
2023-02-08T17:22:53.230Z,27.17
2023-02-08T17:25:23.404Z,26.73
2023-02-08T17:27:55.214Z,26.92
2023-02-08T17:30:26.015Z,26.93
2023-02-08T17:32:56.121Z,27.05
2023-02-08T17:35:24.181Z,27.02
2023-02-08T17:37:53.673Z,26.74
2023-02-08T17:40:23.740Z,27.18
2023-02-08T17:42:55.039Z,26.80
2023-02-08T17:45:22.838Z,27.30
2023-02-08T17:47:50.636Z,27.08
2023-02-08T17:50:19.485Z,26.93
2023-02-08T17:52:48.311Z,27.24
2023-02-08T17:55:18.033Z,27.46
2023-02-08T17:57:46.774Z,27.61
2023-02-08T18:00:18.568Z,27.50
2023-02-08T18:02:47.797Z,27.75
2023-02-08T18:05:16.001Z,27.89
2023-02-08T18:07:43.766Z,27.81
2023-02-08T18:10:13.612Z,27.70
2023-02-08T18:12:41.771Z,27.83
2023-02-08T18:15:13.032Z,27.61
2023-02-08T18:17:43.246Z,27.56
2023-02-08T18:20:14.130Z,27.59
2023-02-08T18:22:42.821Z,27.49
2023-02-08T18:25:11.340Z,27.77
2023-02-08T18:27:39.710Z,27.59
2023-02-08T18:30:08.499Z,27.60
2023-02-08T18:32:36.819Z,27.63
2023-02-08T18:35:07.357Z,27.25
2023-02-08T18:37:35.818Z,27.54
2023-02-08T18:40:04.176Z,27.39
2023-02-08T18:42:33.707Z,28.08
2023-02-08T18:45:02.953Z,27.65
2023-02-08T18:47:30.826Z,27.62
2023-02-08T18:49:58.740Z,27.66
2023-02-08T18:52:28.856Z,27.69
2023-02-08T18:54:57.858Z,27.74
2023-02-08T18:57:25.726Z,27.63
2023-02-08T18:59:54.220Z,27.88
2023-02-08T19:02:26.328Z,27.64
2023-02-08T19:04:54.349Z,27.81
2023-02-08T19:07:22.104Z,27.85
2023-02-08T19:09:51.400Z,27.60
2023-02-08T19:12:20.442Z,27.82
2023-02-08T19:14:50.481Z,27.81
2023-02-08T19:17:18.819Z,27.68
2023-02-08T19:19:46.638Z,28.20
2023-02-08T19:22:14.745Z,28.07
2023-02-08T19:24:42.519Z,27.99
2023-02-08T19:27:11.601Z,27.75
2023-02-08T19:29:39.561Z,28.04
2023-02-08T19:32:08.172Z,28.18
2023-02-08T19:34:36.079Z,28.18
2023-02-08T19:37:03.859Z,28.17
2023-02-08T19:39:31.744Z,27.99
2023-02-08T19:41:59.630Z,28.10
2023-02-08T19:44:30.670Z,27.87
2023-02-08T19:46:59.505Z,28.08
2023-02-08T19:49:28.399Z,28.02
2023-02-08T19:51:57.302Z,28.13
2023-02-08T19:54:25.442Z,28.24
2023-02-08T19:56:54.701Z,28.05
2023-02-08T19:59:24.755Z,28.26
2023-02-08T20:01:54.704Z,28.24
2023-02-08T20:04:23.335Z,28.19
2023-02-08T20:06:52.845Z,28.21
2023-02-08T20:09:21.063Z,28.13
2023-02-08T20:11:56.731Z,28.21
2023-02-08T20:14:24.971Z,28.27
2023-02-08T20:16:54.141Z,28.26
2023-02-08T20:19:21.998Z,28.58
2023-02-08T20:21:50.088Z,28.42
2023-02-08T20:24:18.778Z,28.58
2023-02-08T20:26:48.273Z,28.45
2023-02-08T20:29:16.795Z,28.68
2023-02-08T20:31:47.808Z,28.53
2023-02-08T20:34:18.930Z,28.53
2023-02-08T20:37:04.464Z,28.58
2023-02-08T20:39:34.311Z,28.61
2023-02-08T20:42:02.083Z,28.76
2023-02-08T20:44:31.482Z,28.76
2023-02-08T20:46:59.413Z,28.78
2023-02-08T20:49:30.749Z,28.78
2023-02-08T20:51:59.065Z,28.88
2023-02-08T20:54:27.047Z,28.80
2023-02-08T20:56:55.274Z,29.03
2023-02-08T20:59:24.040Z,28.96
2023-02-08T21:01:52.246Z,28.54
2023-02-08T21:04:23.355Z,28.75
2023-02-08T21:06:53.700Z,28.83
2023-02-08T21:09:21.918Z,28.97
2023-02-08T21:11:50.824Z,28.89
2023-02-08T21:14:21.224Z,28.76
2023-02-08T21:16:51.373Z,28.94
2023-02-08T21:19:20.573Z,28.95
2023-02-08T21:21:53.477Z,28.98
2023-02-08T21:24:21.452Z,29.05
2023-02-08T21:26:49.256Z,29.15
2023-02-08T21:29:17.523Z,29.04
2023-02-08T21:31:45.592Z,29.16
2023-02-08T21:34:13.891Z,29.34
2023-02-08T21:36:41.718Z,29.08
2023-02-08T21:39:10.951Z,29.52
2023-02-08T21:41:39.014Z,29.15
2023-02-08T21:44:08.305Z,29.47
2023-02-08T21:46:36.500Z,29.29
2023-02-08T21:49:21.853Z,29.51
2023-02-08T21:52:07.032Z,29.45
2023-02-08T21:54:42.867Z,29.13
2023-02-08T21:57:13.491Z,29.35
2023-02-08T21:59:41.483Z,29.54
2023-02-08T22:02:13.456Z,29.38
2023-02-08T22:04:42.411Z,29.56
2023-02-08T22:07:10.190Z,29.53
2023-02-08T22:09:41.580Z,29.25
2023-02-08T22:12:14.979Z,29.04
2023-02-08T22:14:42.977Z,29.35
2023-02-08T22:17:11.328Z,29.51
2023-02-08T22:19:40.400Z,29.36
2023-02-08T22:22:09.129Z,29.55
2023-02-08T22:24:37.737Z,29.33
2023-02-08T22:27:06.921Z,29.40
2023-02-08T22:29:34.868Z,29.43
2023-02-08T22:32:02.747Z,29.33
2023-02-08T22:34:30.639Z,29.29
2023-02-08T22:36:58.615Z,29.65
2023-02-08T22:39:26.518Z,29.46
2023-02-08T22:41:54.313Z,29.50
2023-02-08T22:44:23.570Z,29.47
2023-02-08T22:46:51.692Z,29.75
2023-02-08T22:49:19.600Z,29.78
2023-02-08T22:51:47.390Z,29.75
2023-02-08T22:54:15.263Z,29.66
2023-02-08T22:56:43.036Z,29.80
2023-02-08T22:59:11.200Z,30.06
2023-02-08T23:01:40.614Z,29.75
2023-02-08T23:04:08.567Z,29.82
2023-02-08T23:06:36.650Z,29.98
2023-02-08T23:09:05.306Z,30.07
2023-02-08T23:11:33.606Z,29.90
2023-02-08T23:14:01.768Z,29.96
2023-02-08T23:16:29.684Z,30.09
2023-02-08T23:18:59.064Z,30.00
2023-02-08T23:21:26.968Z,30.02
2023-02-08T23:23:54.859Z,30.01
2023-02-08T23:26:22.986Z,29.96
2023-02-08T23:28:52.262Z,30.13
2023-02-08T23:31:21.434Z,30.36
2023-02-08T23:33:50.263Z,30.29
2023-02-08T23:36:22.276Z,30.23
2023-02-08T23:38:51.286Z,30.17
2023-02-08T23:41:20.984Z,30.37
2023-02-08T23:43:50.410Z,30.32
2023-02-08T23:46:21.101Z,30.19
2023-02-08T23:48:49.586Z,30.41
2023-02-08T23:51:21.251Z,30.25
2023-02-08T23:53:49.770Z,30.21
2023-02-08T23:56:23.300Z,30.13
2023-02-08T23:58:54.211Z,30.21
